LF6623 weather

Mont Llaret Pic d'Aude Airfield
Les Angles, Languedoc-Roussillon, France

Public forecast

Using degrees Celsius for public forecast. Weather courtesy of forecast.io.

METAR (pilot weather report)

Report is more than 2 hours old.

Closest report is Pirineus - la Seu d'Urgel Airport, 31.3 nm (58.0 km) WSW. Retrieved 2019/09/19 16:30 UTC (4 hours ago):

LESU 191630Z 01003KT 300V070 9999 VCSH FEW040CB SCT070 19/14 Q1020

TAF (pilot weather forecast)

Closest forecast is Pirineus - la Seu d'Urgel Airport, 31.3 nm (58.0 km) WSW. Retrieved 2019/09/19 15:00 UTC (6 hours ago):

TAF LESU 191400Z 1915/2015 VRB03KT 9999 SCT030 TX24/2013Z TN10/2005Z TEMPO 1915/1917 19010KT TEMPO 1915/1920 36015G30KT 4000 TSRA FEW030CB PROB30 TEMPO 1922/2007 0500 FG BKN002